sensor_id;sensor_type;location;lat;lon;timestamp;P1;durP1;ratioP1;P2;durP2;ratioP2
76377;SDS011;65200;49.500;8.654;2024-03-02T00:01:42;4.25;;;2.60;;
76377;SDS011;65200;49.500;8.654;2024-03-02T00:04:10;3.33;;;2.50;;
76377;SDS011;65200;49.500;8.654;2024-03-02T00:06:38;3.25;;;2.20;;
76377;SDS011;65200;49.500;8.654;2024-03-02T00:09:05;4.25;;;2.42;;
76377;SDS011;65200;49.500;8.654;2024-03-02T00:11:37;4.88;;;3.15;;
76377;SDS011;65200;49.500;8.654;2024-03-02T00:14:05;2.72;;;2.00;;
76377;SDS011;65200;49.500;8.654;2024-03-02T00:16:34;3.83;;;2.42;;
76377;SDS011;65200;49.500;8.654;2024-03-02T00:19:02;5.00;;;2.70;;
76377;SDS011;65200;49.500;8.654;2024-03-02T00:21:29;4.55;;;2.30;;
76377;SDS011;65200;49.500;8.654;2024-03-02T00:23:58;3.15;;;2.30;;
76377;SDS011;65200;49.500;8.654;2024-03-02T00:26:28;2.90;;;2.50;;
76377;SDS011;65200;49.500;8.654;2024-03-02T00:31:26;2.70;;;2.13;;
76377;SDS011;65200;49.500;8.654;2024-03-02T00:33:55;4.03;;;2.55;;
76377;SDS011;65200;49.500;8.654;2024-03-02T00:36:24;3.83;;;1.90;;
76377;SDS011;65200;49.500;8.654;2024-03-02T00:38:53;3.63;;;2.08;;
76377;SDS011;65200;49.500;8.654;2024-03-02T00:41:23;3.15;;;2.33;;
76377;SDS011;65200;49.500;8.654;2024-03-02T00:43:57;2.00;;;1.65;;
76377;SDS011;65200;49.500;8.654;2024-03-02T00:46:27;3.92;;;2.42;;
76377;SDS011;65200;49.500;8.654;2024-03-02T00:48:58;3.88;;;2.45;;
76377;SDS011;65200;49.500;8.654;2024-03-02T00:51:27;5.18;;;3.22;;
76377;SDS011;65200;49.500;8.654;2024-03-02T00:53:58;3.63;;;2.63;;
76377;SDS011;65200;49.500;8.654;2024-03-02T00:56:26;6.15;;;3.25;;
76377;SDS011;65200;49.500;8.654;2024-03-02T00:58:54;6.93;;;3.60;;
76377;SDS011;65200;49.500;8.654;2024-03-02T01:01:22;6.60;;;3.70;;
76377;SDS011;65200;49.500;8.654;2024-03-02T01:03:50;5.10;;;3.72;;
76377;SDS011;65200;49.500;8.654;2024-03-02T01:06:19;9.10;;;4.53;;
76377;SDS011;65200;49.500;8.654;2024-03-02T01:08:48;9.90;;;6.05;;
76377;SDS011;65200;49.500;8.654;2024-03-02T01:11:18;5.40;;;3.33;;
76377;SDS011;65200;49.500;8.654;2024-03-02T01:13:48;5.53;;;3.72;;
76377;SDS011;65200;49.500;8.654;2024-03-02T01:16:16;5.93;;;3.17;;
76377;SDS011;65200;49.500;8.654;2024-03-02T01:18:43;4.45;;;2.72;;
76377;SDS011;65200;49.500;8.654;2024-03-02T01:21:11;3.30;;;2.45;;
76377;SDS011;65200;49.500;8.654;2024-03-02T01:23:40;3.10;;;2.55;;
76377;SDS011;65200;49.500;8.654;2024-03-02T01:26:08;5.13;;;3.50;;
76377;SDS011;65200;49.500;8.654;2024-03-02T01:28:36;23.42;;;10.98;;
76377;SDS011;65200;49.500;8.654;2024-03-02T01:31:03;7.60;;;3.75;;
76377;SDS011;65200;49.500;8.654;2024-03-02T01:33:31;7.38;;;3.78;;
76377;SDS011;65200;49.500;8.654;2024-03-02T01:35:58;6.50;;;3.65;;
76377;SDS011;65200;49.500;8.654;2024-03-02T01:38:26;6.97;;;3.63;;
76377;SDS011;65200;49.500;8.654;2024-03-02T01:43:24;6.28;;;4.05;;
76377;SDS011;65200;49.500;8.654;2024-03-02T01:45:52;6.57;;;4.55;;
76377;SDS011;65200;49.500;8.654;2024-03-02T01:48:20;11.45;;;5.20;;
76377;SDS011;65200;49.500;8.654;2024-03-02T01:50:47;8.50;;;5.55;;
76377;SDS011;65200;49.500;8.654;2024-03-02T01:53:15;8.30;;;4.85;;
76377;SDS011;65200;49.500;8.654;2024-03-02T01:55:43;6.30;;;4.45;;
76377;SDS011;65200;49.500;8.654;2024-03-02T01:58:12;7.85;;;4.47;;
76377;SDS011;65200;49.500;8.654;2024-03-02T02:00:39;8.13;;;4.45;;
76377;SDS011;65200;49.500;8.654;2024-03-02T02:03:07;6.18;;;4.35;;
76377;SDS011;65200;49.500;8.654;2024-03-02T02:05:35;5.60;;;3.67;;
76377;SDS011;65200;49.500;8.654;2024-03-02T02:08:03;4.95;;;3.35;;
76377;SDS011;65200;49.500;8.654;2024-03-02T02:10:31;2.83;;;2.28;;
76377;SDS011;65200;49.500;8.654;2024-03-02T02:12:59;3.15;;;1.88;;
76377;SDS011;65200;49.500;8.654;2024-03-02T02:15:28;2.40;;;2.20;;
76377;SDS011;65200;49.500;8.654;2024-03-02T02:17:58;2.30;;;1.70;;
76377;SDS011;65200;49.500;8.654;2024-03-02T02:20:26;3.40;;;1.90;;
76377;SDS011;65200;49.500;8.654;2024-03-02T02:22:57;2.25;;;1.58;;
76377;SDS011;65200;49.500;8.654;2024-03-02T02:25:26;3.42;;;1.77;;
76377;SDS011;65200;49.500;8.654;2024-03-02T02:27:53;2.28;;;1.65;;
76377;SDS011;65200;49.500;8.654;2024-03-02T02:30:23;3.58;;;2.20;;
76377;SDS011;65200;49.500;8.654;2024-03-02T02:32:51;3.22;;;2.13;;
76377;SDS011;65200;49.500;8.654;2024-03-02T02:35:19;3.40;;;2.10;;
76377;SDS011;65200;49.500;8.654;2024-03-02T02:37:46;3.72;;;2.55;;
76377;SDS011;65200;49.500;8.654;2024-03-02T02:40:17;4.13;;;2.63;;
76377;SDS011;65200;49.500;8.654;2024-03-02T02:42:46;4.15;;;2.70;;
76377;SDS011;65200;49.500;8.654;2024-03-02T02:45:14;4.65;;;2.63;;
76377;SDS011;65200;49.500;8.654;2024-03-02T02:47:42;5.03;;;3.40;;
76377;SDS011;65200;49.500;8.654;2024-03-02T02:50:10;6.18;;;3.33;;
76377;SDS011;65200;49.500;8.654;2024-03-02T02:55:07;4.55;;;3.25;;
76377;SDS011;65200;49.500;8.654;2024-03-02T02:57:38;5.32;;;3.67;;
76377;SDS011;65200;49.500;8.654;2024-03-02T03:00:09;7.55;;;5.78;;
76377;SDS011;65200;49.500;8.654;2024-03-02T03:02:40;5.85;;;4.13;;
76377;SDS011;65200;49.500;8.654;2024-03-02T03:05:09;6.43;;;3.47;;
76377;SDS011;65200;49.500;8.654;2024-03-02T03:07:38;5.03;;;3.88;;
76377;SDS011;65200;49.500;8.654;2024-03-02T03:10:07;5.07;;;4.05;;
76377;SDS011;65200;49.500;8.654;2024-03-02T03:12:35;5.72;;;4.28;;
76377;SDS011;65200;49.500;8.654;2024-03-02T03:15:05;5.57;;;3.45;;
76377;SDS011;65200;49.500;8.654;2024-03-02T03:17:34;6.10;;;3.67;;
76377;SDS011;65200;49.500;8.654;2024-03-02T03:20:04;6.70;;;3.65;;
76377;SDS011;65200;49.500;8.654;2024-03-02T03:22:36;6.05;;;5.47;;
76377;SDS011;65200;49.500;8.654;2024-03-02T03:25:04;6.15;;;4.28;;
76377;SDS011;65200;49.500;8.654;2024-03-02T03:27:34;6.00;;;5.20;;
76377;SDS011;65200;49.500;8.654;2024-03-02T03:30:02;6.15;;;4.25;;
76377;SDS011;65200;49.500;8.654;2024-03-02T03:32:33;6.15;;;4.40;;
76377;SDS011;65200;49.500;8.654;2024-03-02T03:35:01;6.25;;;4.07;;
76377;SDS011;65200;49.500;8.654;2024-03-02T03:37:29;7.05;;;5.32;;
76377;SDS011;65200;49.500;8.654;2024-03-02T03:40:00;5.47;;;4.65;;
76377;SDS011;65200;49.500;8.654;2024-03-02T03:44:55;5.97;;;4.13;;
76377;SDS011;65200;49.500;8.654;2024-03-02T03:47:23;7.18;;;4.18;;
76377;SDS011;65200;49.500;8.654;2024-03-02T03:49:52;5.50;;;4.40;;
76377;SDS011;65200;49.500;8.654;2024-03-02T03:52:20;6.30;;;4.18;;
76377;SDS011;65200;49.500;8.654;2024-03-02T03:54:48;7.68;;;5.43;;
76377;SDS011;65200;49.500;8.654;2024-03-02T03:57:15;12.55;;;5.28;;
76377;SDS011;65200;49.500;8.654;2024-03-02T03:59:43;6.93;;;4.78;;
76377;SDS011;65200;49.500;8.654;2024-03-02T04:02:12;7.00;;;4.97;;
76377;SDS011;65200;49.500;8.654;2024-03-02T04:04:40;6.80;;;4.40;;
76377;SDS011;65200;49.500;8.654;2024-03-02T04:07:09;5.93;;;4.55;;
76377;SDS011;65200;49.500;8.654;2024-03-02T04:09:36;5.85;;;4.22;;
76377;SDS011;65200;49.500;8.654;2024-03-02T04:12:04;8.98;;;5.47;;
76377;SDS011;65200;49.500;8.654;2024-03-02T04:14:32;6.57;;;5.30;;
76377;SDS011;65200;49.500;8.654;2024-03-02T04:16:59;18.60;;;5.80;;
76377;SDS011;65200;49.500;8.654;2024-03-02T04:19:27;8.93;;;5.68;;
76377;SDS011;65200;49.500;8.654;2024-03-02T04:21:54;8.50;;;5.22;;
76377;SDS011;65200;49.500;8.654;2024-03-02T04:24:26;8.60;;;5.85;;
76377;SDS011;65200;49.500;8.654;2024-03-02T04:26:54;8.55;;;5.00;;
76377;SDS011;65200;49.500;8.654;2024-03-02T04:29:21;5.85;;;4.40;;
76377;SDS011;65200;49.500;8.654;2024-03-02T04:31:48;5.75;;;5.05;;
76377;SDS011;65200;49.500;8.654;2024-03-02T04:34:16;9.07;;;4.57;;
76377;SDS011;65200;49.500;8.654;2024-03-02T04:36:44;8.02;;;3.95;;
76377;SDS011;65200;49.500;8.654;2024-03-02T04:39:11;4.68;;;4.20;;
76377;SDS011;65200;49.500;8.654;2024-03-02T04:41:40;6.43;;;4.35;;
76377;SDS011;65200;49.500;8.654;2024-03-02T04:44:08;7.18;;;4.75;;
76377;SDS011;65200;49.500;8.654;2024-03-02T04:46:35;5.93;;;4.57;;
76377;SDS011;65200;49.500;8.654;2024-03-02T04:49:03;8.65;;;4.45;;
76377;SDS011;65200;49.500;8.654;2024-03-02T04:51:31;5.80;;;5.20;;
76377;SDS011;65200;49.500;8.654;2024-03-02T04:53:58;6.28;;;4.93;;
76377;SDS011;65200;49.500;8.654;2024-03-02T04:56:26;7.45;;;4.70;;
76377;SDS011;65200;49.500;8.654;2024-03-02T04:59:17;5.35;;;4.38;;
76377;SDS011;65200;49.500;8.654;2024-03-02T05:01:44;6.47;;;5.15;;
76377;SDS011;65200;49.500;8.654;2024-03-02T05:04:13;6.88;;;5.25;;
76377;SDS011;65200;49.500;8.654;2024-03-02T05:06:41;9.68;;;5.82;;
76377;SDS011;65200;49.500;8.654;2024-03-02T05:09:08;9.77;;;5.75;;
76377;SDS011;65200;49.500;8.654;2024-03-02T05:11:36;9.23;;;5.70;;
76377;SDS011;65200;49.500;8.654;2024-03-02T05:14:26;13.43;;;5.85;;
76377;SDS011;65200;49.500;8.654;2024-03-02T05:16:55;5.32;;;4.57;;
76377;SDS011;65200;49.500;8.654;2024-03-02T05:19:22;9.57;;;5.22;;
76377;SDS011;65200;49.500;8.654;2024-03-02T05:21:51;11.75;;;6.80;;
76377;SDS011;65200;49.500;8.654;2024-03-02T05:24:19;29.58;;;26.15;;
76377;SDS011;65200;49.500;8.654;2024-03-02T05:26:47;10.88;;;8.88;;
76377;SDS011;65200;49.500;8.654;2024-03-02T05:29:15;12.90;;;7.80;;
76377;SDS011;65200;49.500;8.654;2024-03-02T05:31:46;9.65;;;6.72;;
76377;SDS011;65200;49.500;8.654;2024-03-02T05:34:13;11.70;;;5.70;;
76377;SDS011;65200;49.500;8.654;2024-03-02T05:36:41;12.85;;;7.22;;
76377;SDS011;65200;49.500;8.654;2024-03-02T05:39:09;9.10;;;6.10;;
76377;SDS011;65200;49.500;8.654;2024-03-02T05:41:37;13.25;;;7.13;;
76377;SDS011;65200;49.500;8.654;2024-03-02T05:44:04;10.85;;;6.80;;
76377;SDS011;65200;49.500;8.654;2024-03-02T05:46:32;9.32;;;6.93;;
76377;SDS011;65200;49.500;8.654;2024-03-02T05:49:01;9.73;;;6.68;;
76377;SDS011;65200;49.500;8.654;2024-03-02T05:51:30;9.02;;;6.45;;
76377;SDS011;65200;49.500;8.654;2024-03-02T05:53:57;7.97;;;5.90;;
76377;SDS011;65200;49.500;8.654;2024-03-02T05:56:25;11.98;;;6.05;;
76377;SDS011;65200;49.500;8.654;2024-03-02T05:58:52;12.20;;;6.55;;
76377;SDS011;65200;49.500;8.654;2024-03-02T06:01:33;10.82;;;7.05;;
76377;SDS011;65200;49.500;8.654;2024-03-02T06:04:02;13.20;;;7.80;;
76377;SDS011;65200;49.500;8.654;2024-03-02T06:06:30;9.63;;;6.65;;
76377;SDS011;65200;49.500;8.654;2024-03-02T06:13:54;8.52;;;5.80;;
76377;SDS011;65200;49.500;8.654;2024-03-02T06:16:21;9.88;;;6.00;;
76377;SDS011;65200;49.500;8.654;2024-03-02T06:18:51;8.90;;;6.10;;
76377;SDS011;65200;49.500;8.654;2024-03-02T06:21:21;8.57;;;5.93;;
76377;SDS011;65200;49.500;8.654;2024-03-02T06:23:49;7.05;;;5.47;;
76377;SDS011;65200;49.500;8.654;2024-03-02T06:26:16;11.98;;;6.10;;
76377;SDS011;65200;49.500;8.654;2024-03-02T06:28:47;12.05;;;6.93;;
76377;SDS011;65200;49.500;8.654;2024-03-02T06:31:14;12.13;;;7.10;;
76377;SDS011;65200;49.500;8.654;2024-03-02T06:33:42;11.82;;;7.72;;
76377;SDS011;65200;49.500;8.654;2024-03-02T06:36:10;13.52;;;8.18;;
76377;SDS011;65200;49.500;8.654;2024-03-02T06:38:39;13.00;;;7.80;;
76377;SDS011;65200;49.500;8.654;2024-03-02T06:41:09;11.32;;;6.68;;
76377;SDS011;65200;49.500;8.654;2024-03-02T06:43:37;12.63;;;8.02;;
76377;SDS011;65200;49.500;8.654;2024-03-02T06:46:05;11.15;;;7.45;;
76377;SDS011;65200;49.500;8.654;2024-03-02T06:48:35;14.50;;;7.65;;
76377;SDS011;65200;49.500;8.654;2024-03-02T06:51:03;13.40;;;7.22;;
76377;SDS011;65200;49.500;8.654;2024-03-02T06:53:31;10.30;;;6.22;;
76377;SDS011;65200;49.500;8.654;2024-03-02T06:56:01;9.63;;;7.50;;
76377;SDS011;65200;49.500;8.654;2024-03-02T06:58:29;12.43;;;8.52;;
76377;SDS011;65200;49.500;8.654;2024-03-02T07:00:56;10.23;;;7.80;;
76377;SDS011;65200;49.500;8.654;2024-03-02T07:03:24;10.80;;;7.97;;
76377;SDS011;65200;49.500;8.654;2024-03-02T07:05:52;10.35;;;7.28;;
76377;SDS011;65200;49.500;8.654;2024-03-02T07:08:19;13.60;;;8.98;;
76377;SDS011;65200;49.500;8.654;2024-03-02T07:10:47;15.25;;;9.32;;
76377;SDS011;65200;49.500;8.654;2024-03-02T07:13:16;10.93;;;7.35;;
76377;SDS011;65200;49.500;8.654;2024-03-02T07:15:44;13.32;;;7.45;;
76377;SDS011;65200;49.500;8.654;2024-03-02T07:18:26;11.50;;;8.10;;
76377;SDS011;65200;49.500;8.654;2024-03-02T07:20:53;10.30;;;6.45;;
76377;SDS011;65200;49.500;8.654;2024-03-02T07:23:21;13.52;;;8.35;;
76377;SDS011;65200;49.500;8.654;2024-03-02T07:25:53;10.15;;;7.97;;
76377;SDS011;65200;49.500;8.654;2024-03-02T07:28:26;11.85;;;7.85;;
76377;SDS011;65200;49.500;8.654;2024-03-02T07:30:57;9.00;;;7.75;;
76377;SDS011;65200;49.500;8.654;2024-03-02T07:33:26;8.68;;;7.32;;
76377;SDS011;65200;49.500;8.654;2024-03-02T07:35:53;14.27;;;8.50;;
76377;SDS011;65200;49.500;8.654;2024-03-02T07:38:22;8.77;;;6.65;;
76377;SDS011;65200;49.500;8.654;2024-03-02T07:40:49;12.27;;;7.18;;
76377;SDS011;65200;49.500;8.654;2024-03-02T07:43:17;11.23;;;7.93;;
76377;SDS011;65200;49.500;8.654;2024-03-02T07:48:15;13.27;;;8.20;;
76377;SDS011;65200;49.500;8.654;2024-03-02T07:50:43;13.93;;;8.52;;
76377;SDS011;65200;49.500;8.654;2024-03-02T07:53:10;12.02;;;7.25;;
76377;SDS011;65200;49.500;8.654;2024-03-02T07:55:38;13.90;;;7.88;;
76377;SDS011;65200;49.500;8.654;2024-03-02T07:58:06;13.45;;;9.55;;
76377;SDS011;65200;49.500;8.654;2024-03-02T08:00:38;14.50;;;9.77;;
76377;SDS011;65200;49.500;8.654;2024-03-02T08:03:07;17.15;;;9.77;;
76377;SDS011;65200;49.500;8.654;2024-03-02T08:05:37;15.25;;;9.50;;
76377;SDS011;65200;49.500;8.654;2024-03-02T08:08:05;10.75;;;7.43;;
76377;SDS011;65200;49.500;8.654;2024-03-02T08:10:33;13.52;;;8.60;;
76377;SDS011;65200;49.500;8.654;2024-03-02T08:13:01;11.90;;;8.52;;
76377;SDS011;65200;49.500;8.654;2024-03-02T08:15:28;14.20;;;9.75;;
76377;SDS011;65200;49.500;8.654;2024-03-02T08:17:56;13.35;;;11.18;;
76377;SDS011;65200;49.500;8.654;2024-03-02T08:20:25;15.27;;;9.75;;
76377;SDS011;65200;49.500;8.654;2024-03-02T08:22:52;12.43;;;8.77;;
76377;SDS011;65200;49.500;8.654;2024-03-02T08:25:21;16.38;;;9.55;;
76377;SDS011;65200;49.500;8.654;2024-03-02T08:27:49;14.77;;;9.25;;
76377;SDS011;65200;49.500;8.654;2024-03-02T08:30:17;12.68;;;8.52;;
76377;SDS011;65200;49.500;8.654;2024-03-02T08:32:45;16.48;;;11.93;;
76377;SDS011;65200;49.500;8.654;2024-03-02T08:35:13;13.05;;;10.55;;
76377;SDS011;65200;49.500;8.654;2024-03-02T08:37:42;11.30;;;8.02;;
76377;SDS011;65200;49.500;8.654;2024-03-02T08:40:10;16.98;;;9.18;;
76377;SDS011;65200;49.500;8.654;2024-03-02T08:42:43;13.13;;;8.90;;
76377;SDS011;65200;49.500;8.654;2024-03-02T08:45:12;11.82;;;8.25;;
76377;SDS011;65200;49.500;8.654;2024-03-02T08:47:40;11.63;;;8.55;;
76377;SDS011;65200;49.500;8.654;2024-03-02T08:50:08;13.52;;;8.00;;
76377;SDS011;65200;49.500;8.654;2024-03-02T08:52:35;10.98;;;8.20;;
76377;SDS011;65200;49.500;8.654;2024-03-02T08:55:05;10.90;;;7.35;;
76377;SDS011;65200;49.500;8.654;2024-03-02T08:57:33;11.50;;;8.00;;
76377;SDS011;65200;49.500;8.654;2024-03-02T09:00:01;12.70;;;8.15;;
76377;SDS011;65200;49.500;8.654;2024-03-02T09:02:29;14.77;;;9.32;;
76377;SDS011;65200;49.500;8.654;2024-03-02T09:04:56;12.05;;;7.38;;
76377;SDS011;65200;49.500;8.654;2024-03-02T09:07:25;12.70;;;8.10;;
76377;SDS011;65200;49.500;8.654;2024-03-02T09:09:52;10.43;;;6.70;;
76377;SDS011;65200;49.500;8.654;2024-03-02T09:12:21;12.23;;;8.30;;
76377;SDS011;65200;49.500;8.654;2024-03-02T09:14:49;10.00;;;6.95;;
76377;SDS011;65200;49.500;8.654;2024-03-02T09:17:17;9.82;;;7.30;;
76377;SDS011;65200;49.500;8.654;2024-03-02T09:19:44;10.80;;;7.22;;
76377;SDS011;65200;49.500;8.654;2024-03-02T09:22:12;12.43;;;7.38;;
76377;SDS011;65200;49.500;8.654;2024-03-02T09:24:40;11.43;;;6.60;;
76377;SDS011;65200;49.500;8.654;2024-03-02T09:27:08;10.73;;;7.25;;
76377;SDS011;65200;49.500;8.654;2024-03-02T09:29:37;10.75;;;6.88;;
76377;SDS011;65200;49.500;8.654;2024-03-02T09:32:05;10.07;;;6.50;;
76377;SDS011;65200;49.500;8.654;2024-03-02T09:34:34;10.32;;;6.88;;
76377;SDS011;65200;49.500;8.654;2024-03-02T09:37:02;12.43;;;7.68;;
76377;SDS011;65200;49.500;8.654;2024-03-02T09:39:30;9.65;;;6.72;;
76377;SDS011;65200;49.500;8.654;2024-03-02T09:41:58;10.18;;;6.93;;
76377;SDS011;65200;49.500;8.654;2024-03-02T09:44:26;9.30;;;6.60;;
76377;SDS011;65200;49.500;8.654;2024-03-02T09:46:55;9.23;;;6.07;;
76377;SDS011;65200;49.500;8.654;2024-03-02T09:49:23;9.52;;;6.45;;
76377;SDS011;65200;49.500;8.654;2024-03-02T09:51:51;10.68;;;6.78;;
76377;SDS011;65200;49.500;8.654;2024-03-02T09:54:18;11.55;;;6.95;;
76377;SDS011;65200;49.500;8.654;2024-03-02T09:56:49;8.57;;;5.82;;
76377;SDS011;65200;49.500;8.654;2024-03-02T09:59:17;8.25;;;5.90;;
76377;SDS011;65200;49.500;8.654;2024-03-02T10:01:58;9.73;;;6.30;;
76377;SDS011;65200;49.500;8.654;2024-03-02T10:04:26;6.93;;;5.60;;
76377;SDS011;65200;49.500;8.654;2024-03-02T10:07:09;9.18;;;5.35;;
76377;SDS011;65200;49.500;8.654;2024-03-02T10:09:37;9.75;;;6.13;;
76377;SDS011;65200;49.500;8.654;2024-03-02T10:12:05;8.85;;;5.90;;
76377;SDS011;65200;49.500;8.654;2024-03-02T10:14:34;6.97;;;5.63;;
76377;SDS011;65200;49.500;8.654;2024-03-02T10:17:04;11.18;;;6.40;;
76377;SDS011;65200;49.500;8.654;2024-03-02T10:19:35;7.35;;;5.68;;
76377;SDS011;65200;49.500;8.654;2024-03-02T10:22:05;10.25;;;6.72;;
76377;SDS011;65200;49.500;8.654;2024-03-02T10:24:35;7.40;;;6.00;;
76377;SDS011;65200;49.500;8.654;2024-03-02T10:27:08;6.75;;;4.80;;
76377;SDS011;65200;49.500;8.654;2024-03-02T10:29:37;9.45;;;6.03;;
76377;SDS011;65200;49.500;8.654;2024-03-02T10:32:10;8.45;;;4.97;;
76377;SDS011;65200;49.500;8.654;2024-03-02T10:34:39;9.10;;;5.32;;
76377;SDS011;65200;49.500;8.654;2024-03-02T10:37:08;8.13;;;6.07;;
76377;SDS011;65200;49.500;8.654;2024-03-02T10:39:37;9.35;;;5.05;;
76377;SDS011;65200;49.500;8.654;2024-03-02T10:42:06;8.60;;;5.13;;
76377;SDS011;65200;49.500;8.654;2024-03-02T10:44:34;8.65;;;5.05;;
76377;SDS011;65200;49.500;8.654;2024-03-02T10:47:03;8.45;;;4.93;;
76377;SDS011;65200;49.500;8.654;2024-03-02T10:49:33;9.43;;;5.72;;
76377;SDS011;65200;49.500;8.654;2024-03-02T10:52:01;6.30;;;5.13;;
76377;SDS011;65200;49.500;8.654;2024-03-02T10:54:28;8.75;;;5.22;;
76377;SDS011;65200;49.500;8.654;2024-03-02T10:57:03;5.25;;;4.30;;
76377;SDS011;65200;49.500;8.654;2024-03-02T10:59:35;8.85;;;5.88;;
76377;SDS011;65200;49.500;8.654;2024-03-02T11:02:06;8.93;;;5.22;;
76377;SDS011;65200;49.500;8.654;2024-03-02T11:04:36;8.07;;;6.07;;
76377;SDS011;65200;49.500;8.654;2024-03-02T11:07:06;6.70;;;5.20;;
76377;SDS011;65200;49.500;8.654;2024-03-02T11:09:37;8.43;;;5.95;;
76377;SDS011;65200;49.500;8.654;2024-03-02T11:12:09;10.75;;;6.38;;
76377;SDS011;65200;49.500;8.654;2024-03-02T11:14:40;8.45;;;5.75;;
76377;SDS011;65200;49.500;8.654;2024-03-02T11:17:10;7.95;;;4.70;;
76377;SDS011;65200;49.500;8.654;2024-03-02T11:19:43;4.38;;;3.28;;
76377;SDS011;65200;49.500;8.654;2024-03-02T11:22:12;4.03;;;3.05;;
76377;SDS011;65200;49.500;8.654;2024-03-02T11:24:48;5.38;;;3.10;;
76377;SDS011;65200;49.500;8.654;2024-03-02T11:33:26;4.13;;;2.85;;
76377;SDS011;65200;49.500;8.654;2024-03-02T11:35:59;3.47;;;2.97;;
76377;SDS011;65200;49.500;8.654;2024-03-02T11:38:29;3.53;;;2.92;;
76377;SDS011;65200;49.500;8.654;2024-03-02T11:40:59;4.55;;;2.90;;
76377;SDS011;65200;49.500;8.654;2024-03-02T11:43:27;2.97;;;2.20;;
76377;SDS011;65200;49.500;8.654;2024-03-02T11:45:59;3.42;;;2.55;;
76377;SDS011;65200;49.500;8.654;2024-03-02T11:48:30;2.88;;;2.30;;
76377;SDS011;65200;49.500;8.654;2024-03-02T11:51:00;3.13;;;2.08;;
76377;SDS011;65200;49.500;8.654;2024-03-02T11:53:27;2.80;;;1.52;;
76377;SDS011;65200;49.500;8.654;2024-03-02T11:55:59;2.65;;;1.50;;
76377;SDS011;65200;49.500;8.654;2024-03-02T11:58:27;4.35;;;1.48;;
76377;SDS011;65200;49.500;8.654;2024-03-02T12:00:55;2.00;;;1.65;;
76377;SDS011;65200;49.500;8.654;2024-03-02T12:03:24;1.60;;;1.20;;
76377;SDS011;65200;49.500;8.654;2024-03-02T12:05:53;1.80;;;1.50;;
76377;SDS011;65200;49.500;8.654;2024-03-02T12:08:22;1.88;;;1.33;;
76377;SDS011;65200;49.500;8.654;2024-03-02T12:10:57;2.08;;;1.50;;
76377;SDS011;65200;49.500;8.654;2024-03-02T12:13:28;1.80;;;1.40;;
76377;SDS011;65200;49.500;8.654;2024-03-02T12:15:56;3.17;;;1.83;;
76377;SDS011;65200;49.500;8.654;2024-03-02T12:18:24;5.07;;;2.00;;
76377;SDS011;65200;49.500;8.654;2024-03-02T12:20:53;2.30;;;1.80;;
76377;SDS011;65200;49.500;8.654;2024-03-02T12:23:24;3.13;;;1.73;;
76377;SDS011;65200;49.500;8.654;2024-03-02T12:25:53;2.30;;;1.83;;
76377;SDS011;65200;49.500;8.654;2024-03-02T12:30:48;3.00;;;2.65;;
76377;SDS011;65200;49.500;8.654;2024-03-02T12:33:16;2.60;;;1.80;;
76377;SDS011;65200;49.500;8.654;2024-03-02T12:35:44;2.45;;;1.55;;
76377;SDS011;65200;49.500;8.654;2024-03-02T12:38:12;3.17;;;1.98;;
76377;SDS011;65200;49.500;8.654;2024-03-02T12:40:43;4.05;;;2.38;;
76377;SDS011;65200;49.500;8.654;2024-03-02T12:43:10;3.30;;;2.00;;
76377;SDS011;65200;49.500;8.654;2024-03-02T12:45:38;2.95;;;1.83;;
76377;SDS011;65200;49.500;8.654;2024-03-02T12:48:06;3.67;;;2.25;;
76377;SDS011;65200;49.500;8.654;2024-03-02T12:50:34;3.28;;;2.45;;
76377;SDS011;65200;49.500;8.654;2024-03-02T12:53:02;2.65;;;2.05;;
76377;SDS011;65200;49.500;8.654;2024-03-02T12:57:59;2.13;;;1.73;;
76377;SDS011;65200;49.500;8.654;2024-03-02T13:00:29;2.40;;;1.70;;
76377;SDS011;65200;49.500;8.654;2024-03-02T13:03:01;2.55;;;2.00;;
76377;SDS011;65200;49.500;8.654;2024-03-02T13:05:30;2.35;;;1.65;;
76377;SDS011;65200;49.500;8.654;2024-03-02T13:07:58;3.00;;;2.05;;
76377;SDS011;65200;49.500;8.654;2024-03-02T13:10:27;3.30;;;1.60;;
76377;SDS011;65200;49.500;8.654;2024-03-02T13:15:25;2.85;;;1.83;;
76377;SDS011;65200;49.500;8.654;2024-03-02T13:17:53;2.55;;;1.77;;
76377;SDS011;65200;49.500;8.654;2024-03-02T13:20:21;2.25;;;1.55;;
76377;SDS011;65200;49.500;8.654;2024-03-02T13:22:51;2.10;;;1.50;;
76377;SDS011;65200;49.500;8.654;2024-03-02T13:25:19;2.33;;;1.50;;
76377;SDS011;65200;49.500;8.654;2024-03-02T13:27:47;2.55;;;1.63;;
76377;SDS011;65200;49.500;8.654;2024-03-02T13:30:15;2.95;;;1.83;;
76377;SDS011;65200;49.500;8.654;2024-03-02T13:32:44;2.17;;;1.60;;
76377;SDS011;65200;49.500;8.654;2024-03-02T13:35:11;2.33;;;1.60;;
76377;SDS011;65200;49.500;8.654;2024-03-02T13:40:08;1.75;;;1.27;;
76377;SDS011;65200;49.500;8.654;2024-03-02T13:42:40;1.77;;;1.20;;
76377;SDS011;65200;49.500;8.654;2024-03-02T13:47:35;1.48;;;1.23;;
76377;SDS011;65200;49.500;8.654;2024-03-02T13:50:04;1.77;;;1.50;;
76377;SDS011;65200;49.500;8.654;2024-03-02T13:52:33;2.53;;;1.48;;
76377;SDS011;65200;49.500;8.654;2024-03-02T13:55:01;1.85;;;1.35;;
76377;SDS011;65200;49.500;8.654;2024-03-02T13:57:29;2.05;;;1.55;;
76377;SDS011;65200;49.500;8.654;2024-03-02T13:59:57;2.72;;;1.45;;
76377;SDS011;65200;49.500;8.654;2024-03-02T14:02:24;4.03;;;1.20;;
76377;SDS011;65200;49.500;8.654;2024-03-02T14:04:52;3.67;;;1.60;;
76377;SDS011;65200;49.500;8.654;2024-03-02T14:07:21;1.52;;;1.30;;
76377;SDS011;65200;49.500;8.654;2024-03-02T14:09:49;1.73;;;1.23;;
76377;SDS011;65200;49.500;8.654;2024-03-02T14:12:16;1.73;;;1.50;;
76377;SDS011;65200;49.500;8.654;2024-03-02T14:14:44;1.55;;;1.05;;
76377;SDS011;65200;49.500;8.654;2024-03-02T14:19:41;1.58;;;1.10;;
76377;SDS011;65200;49.500;8.654;2024-03-02T14:22:09;1.23;;;0.95;;
76377;SDS011;65200;49.500;8.654;2024-03-02T14:24:40;1.75;;;1.10;;
76377;SDS011;65200;49.500;8.654;2024-03-02T14:27:09;2.47;;;1.65;;
76377;SDS011;65200;49.500;8.654;2024-03-02T14:29:53;2.15;;;1.50;;
76377;SDS011;65200;49.500;8.654;2024-03-02T14:32:21;2.45;;;1.65;;
76377;SDS011;65200;49.500;8.654;2024-03-02T14:34:48;2.35;;;1.25;;
76377;SDS011;65200;49.500;8.654;2024-03-02T14:37:16;1.50;;;1.30;;
76377;SDS011;65200;49.500;8.654;2024-03-02T14:39:45;1.15;;;1.02;;
76377;SDS011;65200;49.500;8.654;2024-03-02T14:42:13;2.17;;;1.33;;
76377;SDS011;65200;49.500;8.654;2024-03-02T14:44:41;4.55;;;1.40;;
76377;SDS011;65200;49.500;8.654;2024-03-02T14:47:08;1.95;;;1.30;;
76377;SDS011;65200;49.500;8.654;2024-03-02T14:52:06;1.50;;;1.33;;
76377;SDS011;65200;49.500;8.654;2024-03-02T14:54:36;2.33;;;1.55;;
76377;SDS011;65200;49.500;8.654;2024-03-02T14:57:05;1.92;;;1.83;;
76377;SDS011;65200;49.500;8.654;2024-03-02T14:59:34;1.65;;;1.20;;
76377;SDS011;65200;49.500;8.654;2024-03-02T15:02:02;1.58;;;1.38;;
76377;SDS011;65200;49.500;8.654;2024-03-02T15:04:30;1.80;;;1.10;;
76377;SDS011;65200;49.500;8.654;2024-03-02T15:06:57;3.67;;;1.55;;
76377;SDS011;65200;49.500;8.654;2024-03-02T15:09:25;1.23;;;1.00;;
76377;SDS011;65200;49.500;8.654;2024-03-02T15:11:52;2.63;;;1.40;;
76377;SDS011;65200;49.500;8.654;2024-03-02T15:16:49;1.52;;;1.13;;
76377;SDS011;65200;49.500;8.654;2024-03-02T15:19:17;1.63;;;1.27;;
76377;SDS011;65200;49.500;8.654;2024-03-02T15:21:44;2.03;;;1.35;;
76377;SDS011;65200;49.500;8.654;2024-03-02T15:24:12;2.00;;;1.50;;
76377;SDS011;65200;49.500;8.654;2024-03-02T15:26:39;1.80;;;1.27;;
76377;SDS011;65200;49.500;8.654;2024-03-02T15:29:07;1.48;;;1.20;;
76377;SDS011;65200;49.500;8.654;2024-03-02T15:31:36;1.70;;;1.48;;
76377;SDS011;65200;49.500;8.654;2024-03-02T15:34:03;1.77;;;1.65;;
76377;SDS011;65200;49.500;8.654;2024-03-02T15:36:31;2.47;;;1.50;;